createdAt,value
2022-10-20T00:01:42.220Z,101431.00
2022-10-20T00:04:09.609Z,101428.00
2022-10-20T00:06:36.965Z,101414.00
2022-10-20T00:09:05.604Z,101419.00
2022-10-20T00:11:33.397Z,101425.00
2022-10-20T00:14:02.554Z,101413.00
2022-10-20T00:16:32.569Z,101420.00
2022-10-20T00:18:59.829Z,101422.00
2022-10-20T00:21:29.482Z,101412.00
2022-10-20T00:24:00.256Z,101404.00
2022-10-20T00:26:29.760Z,101398.00
2022-10-20T00:28:57.464Z,101392.00
2022-10-20T00:31:25.967Z,101408.00
2022-10-20T00:33:53.871Z,101397.00
2022-10-20T00:36:23.226Z,101395.00
2022-10-20T00:38:52.060Z,101389.00
2022-10-20T00:41:21.739Z,101379.00
2022-10-20T00:43:55.901Z,101372.00
2022-10-20T00:46:42.291Z,101372.00
2022-10-20T00:49:17.743Z,101373.00
2022-10-20T00:51:45.347Z,101359.00
2022-10-20T00:54:20.690Z,101355.00
2022-10-20T00:56:50.437Z,101344.00
2022-10-20T00:59:25.890Z,101345.00
2022-10-20T01:01:54.967Z,101352.00
2022-10-20T01:04:22.961Z,101342.00
2022-10-20T01:06:50.214Z,101333.00
2022-10-20T01:09:17.484Z,101339.00
2022-10-20T01:12:05.748Z,101352.00
2022-10-20T01:15:09.726Z,101331.00
2022-10-20T01:17:58.052Z,101337.00
2022-10-20T01:21:04.919Z,101336.00
2022-10-20T01:24:15.837Z,101321.00
2022-10-20T01:27:26.853Z,101310.00
2022-10-20T01:30:02.270Z,101307.00
2022-10-20T01:33:02.631Z,101316.00
2022-10-20T01:35:32.494Z,101305.00
2022-10-20T01:38:32.797Z,101304.00
2022-10-20T01:41:08.780Z,101297.00
2022-10-20T01:43:41.101Z,101281.00
2022-10-20T01:46:12.856Z,101271.00
2022-10-20T01:48:41.026Z,101287.00
2022-10-20T01:51:10.275Z,101271.00
2022-10-20T01:53:38.048Z,101260.00
2022-10-20T01:56:07.460Z,101263.00
2022-10-20T01:58:58.970Z,101256.00
2022-10-20T02:01:48.801Z,101258.00
2022-10-20T02:04:20.292Z,101248.00
2022-10-20T02:07:05.718Z,101241.00
2022-10-20T02:09:50.684Z,101237.00
2022-10-20T02:12:28.185Z,101238.00
2022-10-20T02:14:57.616Z,101234.00
2022-10-20T02:17:25.413Z,101250.00
2022-10-20T02:19:54.445Z,101239.00
2022-10-20T02:22:23.408Z,101248.00
2022-10-20T02:24:52.253Z,101235.00
2022-10-20T02:27:34.883Z,101233.00
2022-10-20T02:30:09.054Z,101236.00
2022-10-20T02:32:40.527Z,101232.00
2022-10-20T02:35:17.845Z,101227.00
2022-10-20T02:37:45.304Z,101213.00
2022-10-20T02:40:13.791Z,101227.00
2022-10-20T02:42:43.454Z,101223.00
2022-10-20T02:45:11.331Z,101226.00
2022-10-20T02:47:39.352Z,101224.00
2022-10-20T02:50:08.351Z,101225.00
2022-10-20T02:52:36.812Z,101216.00
2022-10-20T02:55:06.035Z,101217.00
2022-10-20T02:57:34.044Z,101215.00
2022-10-20T03:00:01.797Z,101220.00
2022-10-20T03:02:28.949Z,101193.00
2022-10-20T03:04:56.198Z,101195.00
2022-10-20T03:07:23.911Z,101189.00
2022-10-20T03:09:51.285Z,101199.00
2022-10-20T03:12:18.582Z,101177.00
2022-10-20T03:14:46.210Z,101183.00
2022-10-20T03:17:13.603Z,101174.00
2022-10-20T03:19:41.687Z,101176.00
2022-10-20T03:22:09.113Z,101172.00
2022-10-20T03:24:36.628Z,101165.00
2022-10-20T03:27:03.982Z,101146.00
2022-10-20T03:29:31.414Z,101156.00
2022-10-20T03:31:58.607Z,101158.00
2022-10-20T03:34:26.158Z,101144.00
2022-10-20T03:36:54.316Z,101150.00
2022-10-20T03:39:21.908Z,101149.00
2022-10-20T03:41:49.223Z,101135.00
2022-10-20T03:44:16.991Z,101135.00
2022-10-20T03:46:44.362Z,101117.00
2022-10-20T03:49:13.187Z,101115.00
2022-10-20T03:51:40.596Z,101119.00
2022-10-20T03:54:08.240Z,101115.00
2022-10-20T03:56:35.780Z,101121.00
2022-10-20T04:01:33.722Z,101116.00
2022-10-20T04:04:01.393Z,101113.00
2022-10-20T04:06:28.919Z,101115.00
2022-10-20T04:08:56.502Z,101095.00
2022-10-20T04:11:24.322Z,101104.00
2022-10-20T04:13:52.004Z,101092.00
2022-10-20T04:16:19.313Z,101104.00
2022-10-20T04:18:47.293Z,101094.00
2022-10-20T04:21:14.970Z,101094.00
2022-10-20T04:23:42.308Z,101081.00
2022-10-20T04:26:16.529Z,101082.00
2022-10-20T04:28:45.018Z,101072.00
2022-10-20T04:31:12.346Z,101100.00
2022-10-20T04:33:40.120Z,101078.00
2022-10-20T04:36:12.383Z,101070.00
2022-10-20T04:38:39.895Z,101058.00
2022-10-20T04:41:07.555Z,101052.00
2022-10-20T04:43:35.701Z,101050.00
2022-10-20T04:46:08.841Z,101035.00
2022-10-20T04:48:38.689Z,101031.00
2022-10-20T04:51:10.559Z,101027.00
2022-10-20T04:53:38.928Z,101048.00
2022-10-20T04:56:08.972Z,101039.00
2022-10-20T04:58:36.905Z,101034.00
2022-10-20T05:01:10.821Z,101023.00
2022-10-20T05:03:38.179Z,101016.00
2022-10-20T05:06:30.344Z,101011.00
2022-10-20T05:09:01.979Z,101021.00
2022-10-20T05:11:31.678Z,101022.00
2022-10-20T05:13:59.010Z,101031.00
2022-10-20T05:16:27.080Z,101033.00
2022-10-20T05:18:54.967Z,101022.00
2022-10-20T05:21:26.725Z,101011.00
2022-10-20T05:24:00.432Z,101013.00
2022-10-20T05:26:34.725Z,100997.00
2022-10-20T05:29:06.434Z,100996.00
2022-10-20T05:31:42.838Z,101003.00
2022-10-20T05:34:12.085Z,100992.00
2022-10-20T05:36:40.259Z,100971.00
2022-10-20T05:39:07.684Z,100977.00
2022-10-20T05:41:38.108Z,100994.00
2022-10-20T05:44:11.559Z,100996.00
2022-10-20T05:46:41.883Z,100972.00
2022-10-20T05:49:17.724Z,100985.00
2022-10-20T05:51:49.378Z,100984.00
2022-10-20T05:54:17.193Z,100992.00
2022-10-20T05:56:44.906Z,100992.00
2022-10-20T05:59:14.059Z,100992.00
2022-10-20T06:01:50.445Z,100993.00
2022-10-20T06:04:28.330Z,100981.00
2022-10-20T06:07:14.832Z,100984.00
2022-10-20T06:09:45.308Z,100994.00
2022-10-20T06:12:12.845Z,100982.00
2022-10-20T06:14:40.304Z,100994.00
2022-10-20T06:17:08.071Z,100996.00
2022-10-20T06:19:35.279Z,101004.00
2022-10-20T06:22:05.926Z,101008.00
2022-10-20T06:24:34.763Z,101011.00
2022-10-20T06:27:06.458Z,101013.00
2022-10-20T06:29:33.803Z,101014.00
2022-10-20T06:32:02.350Z,101022.00
2022-10-20T06:34:29.912Z,101014.00
2022-10-20T06:36:57.387Z,101006.00
2022-10-20T06:39:25.560Z,101011.00
2022-10-20T06:41:54.939Z,101010.00
2022-10-20T06:44:24.878Z,101016.00
2022-10-20T06:46:52.725Z,101014.00
2022-10-20T06:49:21.652Z,101012.00
2022-10-20T06:51:49.750Z,101013.00
2022-10-20T06:54:17.841Z,100997.00
2022-10-20T06:57:04.095Z,101009.00
2022-10-20T06:59:31.610Z,101003.00
2022-10-20T07:01:59.187Z,101021.00
2022-10-20T07:04:27.042Z,101011.00
2022-10-20T07:06:54.264Z,101017.00
2022-10-20T07:09:21.496Z,101018.00
2022-10-20T07:11:53.162Z,101028.00
2022-10-20T07:14:21.325Z,101012.00
2022-10-20T07:16:49.062Z,101006.00
2022-10-20T07:19:16.607Z,101005.00
2022-10-20T07:21:45.665Z,101008.00
2022-10-20T07:24:13.966Z,101017.00
2022-10-20T07:26:42.106Z,101002.00
2022-10-20T07:29:11.181Z,101001.00
2022-10-20T07:31:49.547Z,101015.00
2022-10-20T07:34:25.863Z,101020.00
2022-10-20T07:36:56.168Z,101008.00
2022-10-20T07:39:24.534Z,101019.00
2022-10-20T07:41:52.487Z,101000.00
2022-10-20T07:44:20.121Z,101007.00
2022-10-20T07:46:47.545Z,100993.00
2022-10-20T07:52:02.898Z,101008.00
2022-10-20T07:54:30.966Z,101013.00
2022-10-20T07:56:58.258Z,101011.00
2022-10-20T07:59:25.943Z,100998.00
2022-10-20T08:01:56.207Z,100993.00
2022-10-20T08:04:25.968Z,100985.00
2022-10-20T08:06:53.590Z,100998.00
2022-10-20T08:09:21.395Z,100993.00
2022-10-20T08:11:52.725Z,101004.00
2022-10-20T08:14:23.544Z,100981.00
2022-10-20T08:16:57.288Z,100984.00
2022-10-20T08:19:27.981Z,100965.00
2022-10-20T08:21:55.233Z,100978.00
2022-10-20T08:24:22.737Z,100969.00
2022-10-20T08:26:50.623Z,100967.00
2022-10-20T08:29:18.054Z,100962.00
2022-10-20T08:31:45.620Z,100959.00
2022-10-20T08:34:13.211Z,100959.00
2022-10-20T08:36:40.481Z,100945.00
2022-10-20T08:39:07.772Z,100951.00
2022-10-20T08:44:36.939Z,100955.00
2022-10-20T08:47:18.523Z,100956.00
2022-10-20T08:49:47.004Z,100960.00
2022-10-20T08:52:23.645Z,100975.00
2022-10-20T08:54:57.747Z,100954.00
2022-10-20T08:57:34.588Z,100977.00
2022-10-20T09:00:21.380Z,100989.00
2022-10-20T09:02:51.318Z,100976.00
2022-10-20T09:05:26.497Z,100968.00
2022-10-20T09:07:55.219Z,100960.00
2022-10-20T09:10:39.117Z,100969.00
2022-10-20T09:13:32.014Z,100956.00
2022-10-20T09:16:21.983Z,100967.00
2022-10-20T09:19:02.284Z,100938.00
2022-10-20T09:21:32.949Z,100945.00
2022-10-20T09:24:07.345Z,100938.00
2022-10-20T09:26:59.045Z,100936.00
2022-10-20T09:29:39.179Z,100924.00
2022-10-20T09:32:56.365Z,100921.00
2022-10-20T09:35:36.689Z,100919.00
2022-10-20T09:38:30.473Z,100905.00
2022-10-20T09:41:36.228Z,100915.00
2022-10-20T09:44:14.481Z,100916.00
2022-10-20T09:46:52.520Z,100914.00
2022-10-20T09:49:38.563Z,100915.00
2022-10-20T09:52:22.334Z,100931.00
2022-10-20T09:54:55.856Z,100956.00
2022-10-20T09:57:27.182Z,100962.00
2022-10-20T10:00:01.485Z,100975.00
2022-10-20T10:02:36.762Z,100969.00
2022-10-20T10:05:20.447Z,100976.00
2022-10-20T10:08:00.014Z,100965.00
2022-10-20T10:10:31.286Z,100954.00
2022-10-20T10:13:01.954Z,100960.00
2022-10-20T10:15:37.832Z,100946.00
2022-10-20T10:18:24.176Z,100947.00
2022-10-20T10:21:06.079Z,100956.00
2022-10-20T10:23:55.045Z,100950.00
2022-10-20T10:26:48.350Z,100953.00
2022-10-20T10:29:29.171Z,100959.00
2022-10-20T10:32:18.889Z,100951.00
2022-10-20T10:35:17.927Z,100956.00
2022-10-20T10:37:46.552Z,100950.00
2022-10-20T10:40:33.206Z,100959.00
2022-10-20T10:43:31.411Z,100947.00
2022-10-20T10:46:07.999Z,100948.00
2022-10-20T10:48:57.119Z,100939.00
2022-10-20T10:52:11.794Z,100943.00
2022-10-20T10:55:21.238Z,100929.00
2022-10-20T10:58:19.366Z,100923.00
2022-10-20T11:01:28.738Z,100931.00
2022-10-20T11:05:01.714Z,100936.00
2022-10-20T11:08:08.759Z,100926.00
2022-10-20T11:10:50.441Z,100931.00
2022-10-20T11:13:28.346Z,100910.00
2022-10-20T11:16:28.721Z,100920.00
2022-10-20T11:19:38.890Z,100907.00
2022-10-20T11:22:38.974Z,100916.00
2022-10-20T11:25:22.097Z,100905.00
2022-10-20T11:27:51.603Z,100903.00
2022-10-20T11:30:22.639Z,100915.00
2022-10-20T11:33:09.240Z,100919.00
2022-10-20T11:35:47.339Z,100917.00
2022-10-20T11:38:42.714Z,100932.00
2022-10-20T11:41:28.061Z,100939.00
2022-10-20T11:44:12.234Z,100956.00
2022-10-20T11:47:03.904Z,100920.00
2022-10-20T11:49:34.089Z,100926.00
2022-10-20T11:52:50.913Z,100929.00
2022-10-20T11:56:10.781Z,100929.00
2022-10-20T11:58:50.839Z,100926.00
2022-10-20T12:01:57.669Z,100913.00
2022-10-20T12:04:55.884Z,100899.00
2022-10-20T12:08:28.321Z,100902.00
2022-10-20T12:11:10.377Z,100883.00
2022-10-20T12:14:12.442Z,100877.00
2022-10-20T12:16:55.468Z,100866.00
2022-10-20T12:19:33.550Z,100849.00
2022-10-20T12:22:06.862Z,100831.00
2022-10-20T12:24:52.854Z,100821.00
2022-10-20T12:27:24.693Z,100826.00
2022-10-20T12:30:32.300Z,100833.00
2022-10-20T12:33:11.968Z,100829.00
2022-10-20T12:36:12.597Z,100829.00
2022-10-20T12:38:41.041Z,100830.00
2022-10-20T12:41:12.326Z,100830.00
2022-10-20T12:43:52.618Z,100838.00
2022-10-20T12:46:27.662Z,100835.00
2022-10-20T12:49:03.884Z,100845.00
2022-10-20T12:51:53.659Z,100832.00
2022-10-20T12:54:39.353Z,100825.00
2022-10-20T12:57:41.727Z,100828.00
2022-10-20T13:00:29.103Z,100833.00
2022-10-20T13:02:58.899Z,100826.00
2022-10-20T13:05:48.328Z,100821.00
2022-10-20T13:08:21.816Z,100815.00
2022-10-20T13:10:54.550Z,100809.00
2022-10-20T13:13:21.899Z,100801.00
2022-10-20T13:15:54.309Z,100808.00
2022-10-20T13:18:33.046Z,100797.00
2022-10-20T13:21:27.138Z,100805.00
2022-10-20T13:24:05.380Z,100804.00
2022-10-20T13:26:43.605Z,100800.00
2022-10-20T13:29:49.160Z,100811.00
2022-10-20T13:33:18.082Z,100790.00
2022-10-20T13:36:42.017Z,100784.00
2022-10-20T13:39:15.292Z,100787.00
2022-10-20T13:42:33.857Z,100775.00
2022-10-20T13:45:39.893Z,100776.00
2022-10-20T13:49:07.389Z,100760.00
2022-10-20T13:51:45.103Z,100755.00
2022-10-20T13:54:30.477Z,100758.00
2022-10-20T13:56:59.103Z,100754.00
2022-10-20T13:59:29.494Z,100758.00
2022-10-20T14:02:30.294Z,100754.00
2022-10-20T14:05:08.867Z,100756.00
2022-10-20T14:07:42.156Z,100758.00
2022-10-20T14:10:44.092Z,100771.00
2022-10-20T14:14:09.984Z,100772.00
2022-10-20T14:16:39.682Z,100760.00
2022-10-20T14:19:13.497Z,100766.00
2022-10-20T14:21:51.366Z,100763.00
2022-10-20T14:24:35.862Z,100752.00
2022-10-20T14:27:06.998Z,100739.00
2022-10-20T14:29:42.799Z,100732.00
2022-10-20T14:32:20.792Z,100730.00
2022-10-20T14:35:52.453Z,100732.00
2022-10-20T14:38:32.025Z,100733.00
2022-10-20T14:41:00.519Z,100734.00
2022-10-20T14:43:48.991Z,100727.00
2022-10-20T14:46:47.537Z,100720.00
2022-10-20T14:49:30.879Z,100728.00
2022-10-20T14:52:06.229Z,100740.00
2022-10-20T14:54:40.901Z,100734.00
2022-10-20T14:57:18.320Z,100726.00
2022-10-20T14:59:56.521Z,100734.00
2022-10-20T15:02:30.158Z,100728.00
2022-10-20T15:05:22.100Z,100712.00
2022-10-20T15:07:51.598Z,100723.00
2022-10-20T15:10:25.382Z,100729.00
2022-10-20T15:12:57.731Z,100720.00
2022-10-20T15:15:38.838Z,100719.00
2022-10-20T15:18:15.197Z,100720.00
2022-10-20T15:20:47.340Z,100723.00
2022-10-20T15:23:28.199Z,100712.00
2022-10-20T15:26:04.991Z,100715.00
2022-10-20T15:28:48.567Z,100728.00
2022-10-20T15:31:30.725Z,100730.00
2022-10-20T15:34:00.985Z,100725.00
2022-10-20T15:36:34.161Z,100726.00
2022-10-20T15:39:02.517Z,100728.00
2022-10-20T15:41:40.136Z,100735.00
2022-10-20T15:44:10.471Z,100729.00
2022-10-20T15:46:38.636Z,100737.00
2022-10-20T15:49:06.252Z,100737.00
2022-10-20T15:51:36.884Z,100727.00
2022-10-20T15:54:05.258Z,100728.00
2022-10-20T15:56:34.454Z,100727.00
2022-10-20T15:59:03.510Z,100719.00
2022-10-20T16:01:32.513Z,100723.00
2022-10-20T16:04:04.055Z,100710.00
2022-10-20T16:06:35.158Z,100699.00
2022-10-20T16:09:03.481Z,100712.00
2022-10-20T16:11:31.865Z,100704.00
2022-10-20T16:13:59.990Z,100701.00
2022-10-20T16:16:29.109Z,100699.00
2022-10-20T16:19:00.212Z,100708.00
2022-10-20T16:21:29.209Z,100700.00
2022-10-20T16:24:01.930Z,100701.00
2022-10-20T16:26:31.078Z,100685.00
2022-10-20T16:28:59.917Z,100697.00
2022-10-20T16:31:27.227Z,100696.00
2022-10-20T16:33:54.775Z,100696.00
2022-10-20T16:36:22.094Z,100692.00
2022-10-20T16:38:56.215Z,100694.00
2022-10-20T16:41:24.553Z,100689.00
2022-10-20T16:43:55.227Z,100702.00
2022-10-20T16:46:25.320Z,100699.00
2022-10-20T16:48:52.875Z,100707.00
2022-10-20T16:51:25.098Z,100700.00
2022-10-20T16:53:57.283Z,100702.00
2022-10-20T16:56:30.094Z,100707.00
2022-10-20T16:58:57.498Z,100709.00
2022-10-20T17:01:25.396Z,100704.00
2022-10-20T17:03:57.428Z,100716.00
2022-10-20T17:06:26.961Z,100696.00
2022-10-20T17:08:55.215Z,100707.00
2022-10-20T17:11:29.858Z,100708.00
2022-10-20T17:13:58.814Z,100697.00
2022-10-20T17:16:35.437Z,100702.00
2022-10-20T17:19:04.133Z,100691.00
2022-10-20T17:21:33.976Z,100689.00
2022-10-20T17:24:02.399Z,100685.00
2022-10-20T17:26:32.030Z,100680.00
2022-10-20T17:29:02.614Z,100672.00
2022-10-20T17:31:31.274Z,100684.00
2022-10-20T17:34:00.230Z,100675.00
2022-10-20T17:36:29.696Z,100687.00
2022-10-20T17:39:10.589Z,100675.00
2022-10-20T17:41:38.638Z,100680.00
2022-10-20T17:44:08.580Z,100681.00
2022-10-20T17:46:38.800Z,100675.00
2022-10-20T17:49:06.734Z,100697.00
2022-10-20T17:51:34.931Z,100692.00
2022-10-20T17:54:03.938Z,100688.00
2022-10-20T17:56:36.010Z,100696.00
2022-10-20T17:59:06.676Z,100693.00
2022-10-20T18:01:41.652Z,100692.00
2022-10-20T18:04:15.960Z,100688.00
2022-10-20T18:06:45.876Z,100684.00
2022-10-20T18:09:17.236Z,100679.00
2022-10-20T18:11:51.448Z,100681.00
2022-10-20T18:14:20.181Z,100680.00
2022-10-20T18:16:48.445Z,100669.00
2022-10-20T18:19:19.368Z,100673.00
2022-10-20T18:21:48.257Z,100665.00
2022-10-20T18:24:18.883Z,100655.00
2022-10-20T18:26:47.530Z,100656.00
2022-10-20T18:29:17.304Z,100656.00
2022-10-20T18:31:46.755Z,100664.00
2022-10-20T18:34:18.329Z,100666.00
2022-10-20T18:36:46.370Z,100671.00
2022-10-20T18:39:15.689Z,100675.00
2022-10-20T18:41:46.601Z,100671.00
2022-10-20T18:44:20.576Z,100660.00
2022-10-20T18:46:48.653Z,100655.00
2022-10-20T18:49:21.804Z,100655.00
2022-10-20T18:51:50.066Z,100657.00
2022-10-20T18:54:18.879Z,100641.00
2022-10-20T18:56:48.121Z,100643.00
2022-10-20T18:59:17.521Z,100648.00
2022-10-20T19:01:46.021Z,100655.00
2022-10-20T19:04:13.814Z,100643.00
2022-10-20T19:06:49.310Z,100631.00
2022-10-20T19:09:20.662Z,100631.00
2022-10-20T19:14:17.514Z,100627.00
2022-10-20T19:16:48.812Z,100629.00
2022-10-20T19:19:16.810Z,100630.00
2022-10-20T19:21:44.626Z,100648.00
2022-10-20T19:24:22.984Z,100637.00
2022-10-20T19:27:27.521Z,100641.00
2022-10-20T19:29:48.691Z,100622.00
2022-10-20T19:32:16.276Z,100629.00
2022-10-20T19:34:44.195Z,100611.00
2022-10-20T19:37:12.778Z,100627.00
2022-10-20T19:39:42.575Z,100609.00
2022-10-20T19:42:11.186Z,100611.00
2022-10-20T19:44:40.330Z,100609.00
2022-10-20T19:47:09.289Z,100599.00
2022-10-20T19:49:38.034Z,100583.00
2022-10-20T19:52:08.097Z,100589.00
2022-10-20T19:54:35.745Z,100570.00
2022-10-20T19:57:04.237Z,100583.00
2022-10-20T19:59:31.884Z,100587.00
2022-10-20T20:02:02.304Z,100572.00
2022-10-20T20:04:29.872Z,100571.00
2022-10-20T20:07:01.962Z,100571.00
2022-10-20T20:09:30.493Z,100575.00
2022-10-20T20:11:58.179Z,100583.00
2022-10-20T20:14:25.898Z,100570.00
2022-10-20T20:16:54.543Z,100576.00
2022-10-20T20:19:22.721Z,100574.00
2022-10-20T20:21:51.380Z,100580.00
2022-10-20T20:24:39.808Z,100583.00
2022-10-20T20:27:08.131Z,100569.00
2022-10-20T20:29:36.710Z,100594.00
2022-10-20T20:32:05.349Z,100580.00
2022-10-20T20:34:33.675Z,100573.00
2022-10-20T20:37:02.494Z,100570.00
2022-10-20T20:39:30.417Z,100566.00
2022-10-20T20:41:58.742Z,100570.00
2022-10-20T20:44:26.222Z,100579.00
2022-10-20T20:46:53.931Z,100570.00
2022-10-20T20:49:21.586Z,100568.00
2022-10-20T20:51:49.611Z,100576.00
2022-10-20T20:54:16.978Z,100568.00
2022-10-20T20:56:44.373Z,100564.00
2022-10-20T20:59:13.467Z,100563.00
2022-10-20T21:01:40.958Z,100549.00
2022-10-20T21:04:11.801Z,100540.00
2022-10-20T21:07:01.269Z,100548.00
2022-10-20T21:09:30.399Z,100556.00
2022-10-20T21:11:57.854Z,100548.00
2022-10-20T21:14:25.929Z,100566.00
2022-10-20T21:16:53.872Z,100555.00
2022-10-20T21:19:22.405Z,100566.00
2022-10-20T21:21:51.188Z,100564.00
2022-10-20T21:24:19.516Z,100556.00
2022-10-20T21:26:47.287Z,100562.00
2022-10-20T21:29:14.761Z,100563.00
2022-10-20T21:31:42.097Z,100564.00
2022-10-20T21:34:11.054Z,100558.00
2022-10-20T21:36:40.232Z,100566.00
2022-10-20T21:39:12.083Z,100574.00
2022-10-20T21:41:39.452Z,100591.00
2022-10-20T21:44:14.633Z,100578.00
2022-10-20T21:46:49.577Z,100578.00
2022-10-20T21:49:21.680Z,100568.00
2022-10-20T21:51:56.517Z,100557.00
2022-10-20T21:54:28.274Z,100550.00
2022-10-20T21:56:56.567Z,100555.00
2022-10-20T21:59:31.397Z,100569.00
2022-10-20T22:02:01.344Z,100571.00
2022-10-20T22:04:30.721Z,100565.00
2022-10-20T22:06:59.843Z,100572.00
2022-10-20T22:09:27.308Z,100569.00
2022-10-20T22:11:58.762Z,100572.00
2022-10-20T22:14:26.122Z,100573.00
2022-10-20T22:16:55.620Z,100570.00
2022-10-20T22:19:25.124Z,100578.00
2022-10-20T22:21:54.783Z,100569.00
2022-10-20T22:24:23.677Z,100579.00
2022-10-20T22:26:53.220Z,100579.00
2022-10-20T22:29:22.663Z,100594.00
2022-10-20T22:31:51.437Z,100581.00
2022-10-20T22:34:18.712Z,100582.00
2022-10-20T22:36:46.132Z,100578.00
2022-10-20T22:39:14.366Z,100572.00
2022-10-20T22:41:41.940Z,100558.00
2022-10-20T22:44:10.053Z,100556.00
2022-10-20T22:46:37.595Z,100555.00
2022-10-20T22:49:05.594Z,100540.00
2022-10-20T22:51:33.492Z,100547.00
2022-10-20T22:54:01.384Z,100532.00
2022-10-20T22:56:29.068Z,100521.00
2022-10-20T22:58:56.939Z,100520.00
2022-10-20T23:01:24.717Z,100527.00
2022-10-20T23:03:52.666Z,100516.00
2022-10-20T23:06:24.936Z,100516.00
2022-10-20T23:08:56.645Z,100502.00
2022-10-20T23:11:24.651Z,100510.00
2022-10-20T23:13:52.745Z,100504.00
2022-10-20T23:16:20.645Z,100501.00
2022-10-20T23:18:48.770Z,100492.00
2022-10-20T23:21:16.696Z,100489.00
2022-10-20T23:23:45.320Z,100489.00
2022-10-20T23:26:13.498Z,100473.00
2022-10-20T23:28:40.867Z,100495.00
2022-10-20T23:31:15.884Z,100484.00
2022-10-20T23:33:45.306Z,100485.00
2022-10-20T23:36:15.582Z,100498.00
2022-10-20T23:38:44.422Z,100502.00
2022-10-20T23:41:12.796Z,100516.00
2022-10-20T23:43:41.398Z,100503.00
2022-10-20T23:46:08.910Z,100518.00
2022-10-20T23:48:36.583Z,100517.00
2022-10-20T23:51:04.760Z,100524.00
2022-10-20T23:53:32.428Z,100528.00
2022-10-20T23:55:59.804Z,100530.00
2022-10-20T23:58:27.544Z,100524.00
